Time;durP1;ratioP1;P1;durP2;ratioP2;P2;SDS_P1;SDS_P2;PMS_P1;PMS_P2;Temp;Humidity;BMP_temperature;BMP_pressure;BME280_temperature;BME280_humidity;BME280_pressure;Samples;Min_cycle;Max_cycle;Signal;HPM_P1;HPM_P2
2023/10/12 00:01:59;;;;;;;1.75;1.65;;;;;;;11.71;100.00;99503.50;7398051;19;20424;-53
2023/10/12 00:07:31;;;;;;;3.20;0.75;;;;;;;11.65;100.00;99510.25;7397300;19;20019;-53
2023/10/12 00:12:36;;;;;;;0.50;0.22;;;;;;;11.51;100.00;99503.50;7397290;19;20372;-53
2023/10/12 00:15:06;;;;;;;0.98;0.82;;;;;;;11.54;100.00;99504.56;7396779;19;20014;-53
2023/10/12 00:17:37;;;;;;;0.55;0.40;;;;;;;11.47;100.00;99511.31;7397905;19;20014;-52
2023/10/12 00:20:08;;;;;;;0.30;0.30;;;;;;;11.56;100.00;99502.03;7397046;19;20382;-53
2023/10/12 00:22:36;;;;;;;2.75;0.68;;;;;;;11.46;100.00;99501.41;7397687;19;20006;-52
2023/10/12 00:25:04;;;;;;;0.43;0.32;;;;;;;11.58;100.00;99499.53;7396835;19;20011;-53
2023/10/12 00:27:33;;;;;;;0.30;0.30;;;;;;;11.43;100.00;99508.00;7397217;19;20096;-52
2023/10/12 00:30:00;;;;;;;0.22;0.22;;;;;;;11.53;100.00;99512.16;7396932;19;20014;-53
2023/10/12 00:32:26;;;;;;;0.10;0.10;;;;;;;11.51;100.00;99506.28;7401233;19;20010;-52
2023/10/12 00:34:53;;;;;;;0.20;0.15;;;;;;;11.47;100.00;99516.91;7394751;19;20014;-52
2023/10/12 00:37:19;;;;;;;1.60;0.40;;;;;;;11.49;100.00;99503.25;7396414;19;20018;-53
2023/10/12 00:42:18;;;;;;;0.45;0.40;;;;;;;11.56;100.00;99502.81;7395766;19;20014;-53
2023/10/12 00:44:47;;;;;;;0.85;0.63;;;;;;;11.51;100.00;99509.09;7398798;19;20360;-53
2023/10/12 00:47:19;;;;;;;0.40;0.40;;;;;;;11.51;100.00;99506.28;7393929;19;20017;-53
2023/10/12 00:49:49;;;;;;;0.20;0.20;;;;;;;11.60;100.00;99517.31;7394991;19;20018;-53
2023/10/12 00:52:24;;;;;;;0.20;0.20;;;;;;;11.58;100.00;99521.84;7395168;19;20039;-53
2023/10/12 00:54:56;;;;;;;1.85;0.57;;;;;;;11.57;100.00;99534.25;7395369;19;20074;-53
2023/10/12 00:57:23;;;;;;;0.10;0.10;;;;;;;11.58;100.00;99525.41;7396167;19;20348;-52
2023/10/12 00:59:52;;;;;;;0.10;0.10;;;;;;;12.24;100.00;99532.91;7394886;19;20010;-53
2023/10/12 01:02:24;;;;;;;0.17;0.17;;;;;;;18.59;100.00;99530.94;7392986;19;20409;-53
2023/10/12 01:04:53;;;;;;;0.65;0.65;;;;;;;31.64;55.36;99519.25;7393259;19;20018;-53
2023/10/12 01:07:24;;;;;;;0.43;0.30;;;;;;;34.62;42.30;99521.31;7395819;19;20015;-53
2023/10/12 01:10:03;;;;;;;0.10;0.10;;;;;;;36.36;37.22;99518.66;7395823;19;20011;-53
2023/10/12 01:12:31;;;;;;;0.40;0.38;;;;;;;36.91;35.34;99526.56;7394004;19;20011;-52
2023/10/12 01:14:57;;;;;;;0.55;0.22;;;;;;;33.42;39.34;99521.84;7394354;19;20069;-52
2023/10/12 01:17:25;;;;;;;0.28;0.22;;;;;;;20.72;66.14;99536.72;7395278;19;20412;-53
2023/10/12 01:19:52;;;;;;;0.13;0.13;;;;;;;14.52;100.00;99555.81;7396736;19;20339;-53
2023/10/12 01:22:27;;;;;;;0.52;0.50;;;;;;;12.98;100.00;99545.66;7393634;19;20010;-52
2023/10/12 01:27:24;;;;;;;0.20;0.20;;;;;;;11.84;100.00;99548.53;7390701;19;20349;-78
2023/10/12 01:29:52;;;;;;;0.47;0.47;;;;;;;11.64;100.00;99554.13;7392224;19;20011;-78
2023/10/12 01:35:02;;;;;;;6.65;0.93;;;;;;;11.57;100.00;99554.53;7387926;19;20021;-79
2023/10/12 01:37:29;;;;;;;0.30;0.30;;;;;;;11.37;100.00;99540.59;7389597;19;20621;-79
2023/10/12 01:43:12;;;;;;;0.25;0.25;;;;;;;11.33;100.00;99518.50;7391555;19;20022;-80
2023/10/12 01:45:30;;;;;;;0.52;0.50;;;;;;;11.34;100.00;99520.06;7389734;19;20399;-79
2023/10/12 01:50:43;;;;;;;0.20;0.20;;;;;;;11.33;100.00;99517.75;7390304;19;20015;-79
2023/10/12 01:53:25;;;;;;;0.20;0.20;;;;;;;11.31;100.00;99520.25;7390014;19;20025;-79
2023/10/12 01:55:52;;;;;;;0.47;0.47;;;;;;;11.30;100.00;99527.84;7389325;19;20464;-79
2023/10/12 01:58:20;;;;;;;0.28;0.28;;;;;;;11.28;100.00;99521.25;7390620;19;20304;-79
2023/10/12 02:00:53;;;;;;;0.30;0.28;;;;;;;11.24;100.00;99526.25;7389353;19;20496;-79
2023/10/12 02:05:58;;;;;;;0.35;0.35;;;;;;;11.14;100.00;99519.28;7390787;19;20030;-79
2023/10/12 02:08:32;;;;;;;0.22;0.22;;;;;;;11.06;100.00;99529.31;7390662;19;20025;-79
2023/10/12 02:11:26;;;;;;;0.43;0.43;;;;;;;11.00;100.00;99528.47;7391289;19;20014;-79
2023/10/12 02:13:56;;;;;;;0.57;0.20;;;;;;;10.91;100.00;99523.03;7390290;19;20074;-79
2023/10/12 02:16:31;;;;;;;0.32;0.32;;;;;;;11.91;100.00;99528.53;7389043;19;20481;-79
2023/10/12 02:18:58;;;;;;;0.73;0.50;;;;;;;10.57;100.00;99530.91;7393543;19;20082;-79
2023/10/12 02:21:26;;;;;;;0.10;0.10;;;;;;;10.03;100.00;99537.06;7394089;19;20544;-79
2023/10/12 02:23:54;;;;;;;0.10;0.10;;;;;;;10.74;100.00;99533.19;7390657;19;20484;-80
2023/10/12 02:26:31;;;;;;;0.20;0.20;;;;;;;11.04;100.00;99551.34;7392871;19;20017;-79
2023/10/12 02:34:19;;;;;;;0.20;0.20;;;;;;;11.46;100.00;99528.56;7399538;19;20362;-79
2023/10/12 02:39:37;;;;;;;0.20;0.20;;;;;;;11.45;100.00;99547.31;7397906;19;20015;-79
2023/10/12 02:47:22;;;;;;;0.63;0.52;;;;;;;11.39;100.00;99555.59;7399752;19;20077;-79
2023/10/12 02:49:49;;;;;;;0.20;0.20;;;;;;;11.37;100.00;99562.91;7398793;19;20345;-79
2023/10/12 02:52:16;;;;;;;0.50;0.50;;;;;;;12.29;100.00;99560.13;7397995;19;20014;-80
2023/10/12 02:54:55;;;;;;;0.22;0.22;;;;;;;31.29;54.50;99534.50;7397339;19;20349;-79
2023/10/12 02:57:26;;;;;;;0.30;0.30;;;;;;;34.08;41.88;99538.94;7395881;19;20015;-80
2023/10/12 02:59:57;;;;;;;0.30;0.20;;;;;;;34.88;38.86;99539.88;7397749;19;20020;-80
2023/10/12 03:02:31;;;;;;;;;;;;;;;36.04;36.30;99522.47;7396296;19;20085;-80
2023/10/12 03:05:06;;;;;;;0.25;0.25;;;;;;;36.33;34.26;99520.00;7398674;19;19974;-80
2023/10/12 03:07:36;;;;;;;0.47;0.32;;;;;;;36.37;33.55;99513.59;7396188;19;20022;-79
2023/10/12 03:10:23;;;;;;;0.20;0.20;;;;;;;36.97;32.14;99521.00;7397459;19;20490;-80
2023/10/12 03:12:54;;;;;;;0.10;0.10;;;;;;;37.64;31.19;99527.75;7397739;19;20022;-80
2023/10/12 03:15:30;;;;;;;;;;;;;;;37.95;30.39;99523.72;7399314;19;20406;-79
2023/10/12 03:17:58;;;;;;;0.15;0.15;;;;;;;37.89;30.16;99515.53;7396652;19;19925;-80
2023/10/12 03:20:28;;;;;;;0.63;0.30;;;;;;;37.25;30.62;99516.94;7395399;19;20018;-80
2023/10/12 03:22:59;;;;;;;0.57;0.55;;;;;;;37.19;30.51;99519.63;7394271;19;20430;-79
2023/10/12 03:28:12;;;;;;;0.20;0.20;;;;;;;37.27;29.88;99512.63;7394619;19;20456;-79
2023/10/12 03:30:53;;;;;;;1.00;0.40;;;;;;;37.23;29.65;99513.25;7396782;19;20026;-80
2023/10/12 03:33:19;;;;;;;0.73;0.50;;;;;;;37.55;28.96;99513.63;7396021;19;20023;-79
2023/10/12 03:36:02;;;;;;;0.10;0.10;;;;;;;37.23;29.36;99502.34;7393646;19;20011;-80
2023/10/12 03:38:33;;;;;;;0.10;0.10;;;;;;;37.39;28.80;99502.19;7396052;19;20579;-80
2023/10/12 03:44:11;;;;;;;0.63;0.47;;;;;;;37.37;28.37;99492.66;7392577;19;20057;-80
2023/10/12 03:46:45;;;;;;;0.20;0.20;;;;;;;37.37;28.67;99493.41;7392705;19;20021;-79
2023/10/12 03:49:31;;;;;;;2.80;0.80;;;;;;;37.72;27.88;99504.78;7393041;19;20038;-80
2023/10/12 03:52:00;;;;;;;0.20;0.20;;;;;;;37.88;27.56;99505.31;7394398;19;20018;-80
2023/10/12 03:54:28;;;;;;;0.50;0.43;;;;;;;38.55;27.43;99487.78;7392229;19;20018;-80
2023/10/12 03:57:07;;;;;;;0.10;0.10;;;;;;;38.40;26.71;99494.59;7396275;19;20373;-79
2023/10/12 03:59:52;;;;;;;0.25;0.25;;;;;;;37.96;26.67;99475.78;7392885;19;20014;-79
2023/10/12 04:02:20;;;;;;;0.55;0.43;;;;;;;37.92;26.96;99481.47;7394832;19;20035;-80
2023/10/12 04:04:59;;;;;;;1.48;0.65;;;;;;;38.20;26.73;99485.25;7393251;19;20361;-80
2023/10/12 04:07:59;;;;;;;0.20;0.20;;;;;;;38.34;26.78;99503.16;7393551;19;20024;-80
2023/10/12 04:10:22;;;;;;;0.40;0.32;;;;;;;38.99;25.76;99488.34;7393699;19;20022;-79
2023/10/12 04:13:07;;;;;;;0.30;0.30;;;;;;;39.24;25.98;99478.88;7394271;19;20495;-79
2023/10/12 04:16:05;;;;;;;0.40;0.40;;;;;;;39.15;25.83;99473.50;7392156;19;20037;-79
2023/10/12 04:18:27;;;;;;;0.10;0.10;;;;;;;39.29;25.26;99495.00;7396996;19;20022;-79
2023/10/12 04:20:57;;;;;;;0.10;0.10;;;;;;;38.94;25.45;99503.50;7396164;19;20024;-79
2023/10/12 04:28:57;;;;;;;0.32;0.32;;;;;;;38.72;25.57;99482.47;7390123;19;20022;-80
2023/10/12 04:31:34;;;;;;;0.30;0.25;;;;;;;38.75;25.06;99481.13;7394329;19;20026;-79
2023/10/12 04:36:44;;;;;;;0.10;0.10;;;;;;;38.50;25.11;99488.38;7394013;19;20055;-79
2023/10/12 04:39:25;;;;;;;0.10;0.10;;;;;;;38.05;25.57;99494.97;7393316;19;20082;-79
2023/10/12 04:47:04;;;;;;;0.30;0.30;;;;;;;13.08;100.00;99527.41;7392486;19;20011;-80
2023/10/12 04:52:16;;;;;;;0.10;0.10;;;;;;;12.68;100.00;99527.66;7393263;19;20022;-80
2023/10/12 04:57:27;;;;;;;0.25;0.25;;;;;;;11.46;100.00;99520.94;7393761;19;20010;-79
2023/10/12 05:02:57;;;;;;;0.10;0.10;;;;;;;10.02;100.00;99524.41;7391437;19;20072;-79
2023/10/12 05:07:54;;;;;;;0.35;0.35;;;;;;;10.82;100.00;99526.72;7394609;19;20014;-80
2023/10/12 05:10:31;;;;;;;0.63;0.63;;;;;;;10.75;100.00;99526.34;7394140;19;20017;-80
2023/10/12 05:13:05;;;;;;;0.43;0.43;;;;;;;10.63;100.00;99517.81;7393200;19;20363;-80
2023/10/12 05:15:46;;;;;;;0.20;0.20;;;;;;;10.81;100.00;99521.59;7392177;19;20422;-80
2023/10/12 05:18:15;;;;;;;2.30;1.42;;;;;;;10.82;100.00;99520.38;7392430;19;20041;-80
2023/10/12 05:20:41;;;;;;;0.85;0.85;;;;;;;19.59;100.00;99512.88;7393560;19;20022;-80
2023/10/12 05:23:07;;;;;;;25.50;1.20;;;;;;;30.15;49.35;99504.31;7392401;19;20484;-80
2023/10/12 05:28:35;;;;;;;0.22;0.22;;;;;;;36.51;32.53;99505.47;7391670;19;20322;-80
2023/10/12 05:36:10;;;;;;;0.32;0.25;;;;;;;37.86;28.53;99508.16;7390612;19;20038;-80
2023/10/12 05:38:51;;;;;;;0.10;0.10;;;;;;;38.13;27.32;99514.81;7391388;19;20349;-80
2023/10/12 05:41:22;;;;;;;;;;;;;;;38.58;27.13;99527.19;7392706;19;20018;-80
2023/10/12 05:43:48;;;;;;;0.20;0.20;;;;;;;38.46;26.47;99526.09;7395588;19;19939;-80
2023/10/12 05:46:14;;;;;;;4.75;0.40;;;;;;;38.40;25.94;99523.72;7388040;19;20015;-80
2023/10/12 05:48:46;;;;;;;0.30;0.30;;;;;;;38.25;25.61;99513.06;7392559;19;20024;-80
2023/10/12 05:51:21;;;;;;;1.20;1.10;;;;;;;37.90;25.65;99502.47;7391508;19;20015;-80
2023/10/12 05:53:48;;;;;;;1.48;1.38;;;;;;;35.41;27.21;99516.88;7390772;19;20022;-80
2023/10/12 05:56:18;;;;;;;0.25;0.25;;;;;;;37.22;26.46;99535.72;7394195;19;20632;-80
2023/10/12 05:58:44;;;;;;;0.30;0.25;;;;;;;37.94;25.86;99531.72;7391851;19;20014;-80
2023/10/12 06:01:15;;;;;;;1.08;1.05;;;;;;;38.02;25.71;99530.47;7390233;19;20515;-81
2023/10/12 06:03:46;;;;;;;;;;;;;;;38.12;25.16;99525.00;7391349;19;20045;-80
2023/10/12 06:06:13;;;;;;;3.17;2.90;;;;;;;37.50;25.27;99515.66;7387179;19;20301;-81
2023/10/12 06:08:41;;;;;;;5.82;2.08;;;;;;;37.91;24.55;99526.50;7389603;19;20018;-80
2023/10/12 06:11:08;;;;;;;1.83;1.50;;;;;;;38.15;24.47;99533.09;7391572;19;20029;-80
2023/10/12 06:13:42;;;;;;;1.00;1.00;;;;;;;38.46;24.08;99531.91;7391735;19;20019;-81
2023/10/12 06:16:20;;;;;;;0.40;0.40;;;;;;;38.49;23.85;99525.44;7389620;19;20015;-80
2023/10/12 06:18:49;;;;;;;0.20;0.20;;;;;;;38.41;24.13;99516.47;7392284;19;20019;-80
2023/10/12 06:21:19;;;;;;;0.60;0.60;;;;;;;38.56;23.57;99512.56;7393191;19;20018;-80
2023/10/12 06:23:50;;;;;;;0.85;0.73;;;;;;;38.59;23.82;99505.41;7390891;19;20014;-80
2023/10/12 06:26:29;;;;;;;1.13;1.02;;;;;;;38.64;23.39;99518.63;7387369;19;20015;-81
2023/10/12 06:28:57;;;;;;;0.95;0.45;;;;;;;38.49;23.85;99525.44;7386500;19;20519;-80
2023/10/12 06:31:25;;;;;;;1.30;0.93;;;;;;;38.60;24.08;99529.41;7386988;19;20567;-80
2023/10/12 06:33:55;;;;;;;0.30;0.30;;;;;;;38.92;23.55;99530.38;7384743;19;20015;-81
2023/10/12 06:36:37;;;;;;;0.45;0.40;;;;;;;38.93;23.66;99526.03;7382288;19;20043;-80
2023/10/12 06:44:27;;;;;;;1.38;1.30;;;;;;;38.89;23.66;99525.19;7389541;19;20029;-81
2023/10/12 06:46:57;;;;;;;0.57;0.57;;;;;;;39.25;23.24;99529.13;7388258;19;20804;-80
2023/10/12 06:49:28;;;;;;;0.80;0.55;;;;;;;39.49;22.83;99538.53;7391299;19;20010;-80
2023/10/12 06:52:00;;;;;;;1.55;0.65;;;;;;;39.38;22.47;99536.78;7390206;19;20007;-80
2023/10/12 07:02:45;;;;;;;0.57;0.57;;;;;;;39.69;22.41;99544.91;7389333;19;20031;-80
2023/10/12 07:05:11;;;;;;;3.67;1.08;;;;;;;39.62;22.47;99546.19;7386247;19;20023;-80
2023/10/12 07:07:41;;;;;;;1.05;0.85;;;;;;;39.35;22.31;99546.91;7389812;19;20018;-80
2023/10/12 07:12:45;;;;;;;2.78;2.20;;;;;;;39.33;22.77;99549.78;7394343;19;20411;-80
2023/10/12 07:15:12;;;;;;;0.85;0.45;;;;;;;39.34;22.26;99554.16;7398766;19;20022;-79
2023/10/12 07:17:48;;;;;;;0.98;0.50;;;;;;;39.40;22.31;99557.22;7399451;19;20347;-80
2023/10/12 07:23:33;;;;;;;1.00;0.60;;;;;;;39.24;22.62;99554.63;7397850;19;20017;-80
2023/10/12 07:26:00;;;;;;;0.20;0.20;;;;;;;39.10;22.35;99562.19;7392444;19;20465;-80
2023/10/12 07:28:32;;;;;;;0.98;0.73;;;;;;;39.11;22.51;99546.22;7391071;19;20613;-80
2023/10/12 07:39:20;;;;;;;2.47;0.50;;;;;;;39.27;22.40;99552.50;7394501;19;20074;-80
2023/10/12 07:42:00;;;;;;;1.40;1.30;;;;;;;39.28;22.68;99551.09;7393643;19;20413;-81
2023/10/12 07:44:28;;;;;;;0.20;0.20;;;;;;;39.24;22.39;99542.97;7397906;19;20610;-81
2023/10/12 07:46:58;;;;;;;0.20;0.20;;;;;;;39.36;22.31;99542.56;7396297;19;20014;-80
2023/10/12 07:52:04;;;;;;;1.25;1.23;;;;;;;39.39;22.24;99553.59;7394013;19;20413;-80
2023/10/12 07:54:47;;;;;;;0.30;0.30;;;;;;;39.32;22.64;99554.09;7393696;19;20690;-81
2023/10/12 07:57:14;;;;;;;0.20;0.20;;;;;;;39.03;22.26;99549.63;7394867;19;20021;-80
2023/10/12 07:59:49;;;;;;;0.40;0.32;;;;;;;39.09;22.36;99538.16;7393421;19;20010;-81
2023/10/12 08:02:15;;;;;;;0.80;0.80;;;;;;;39.08;22.65;99535.91;7395746;19;20022;-81
2023/10/12 08:04:58;;;;;;;0.17;0.17;;;;;;;39.17;22.30;99537.66;7395940;19;20052;-81
2023/10/12 08:07:26;;;;;;;0.32;0.30;;;;;;;39.08;22.43;99541.75;7393942;19;20018;-81
2023/10/12 08:09:54;;;;;;;2.50;0.93;;;;;;;39.17;22.45;99549.31;7394330;19;20022;-81
2023/10/12 08:12:26;;;;;;;0.28;0.28;;;;;;;39.22;22.60;99550.91;7394244;19;20024;-81
2023/10/12 08:15:09;;;;;;;0.63;0.63;;;;;;;39.39;22.63;99552.84;7397231;19;20010;-81
2023/10/12 08:17:35;;;;;;;0.63;0.63;;;;;;;39.69;22.24;99538.34;7393860;19;20491;-81
2023/10/12 08:22:50;;;;;;;0.50;0.50;;;;;;;39.83;22.73;99556.94;7392590;19;20452;-81
2023/10/12 08:25:27;;;;;;;0.50;0.50;;;;;;;39.20;23.03;99547.94;7395080;19;20049;-81
2023/10/12 08:27:54;;;;;;;1.65;1.27;;;;;;;39.41;23.19;99541.22;7391792;19;20029;-81
2023/10/12 08:30:23;;;;;;;0.70;0.70;;;;;;;39.35;22.94;99538.88;7394494;19;20019;-81
2023/10/12 08:33:09;;;;;;;3.13;0.85;;;;;;;39.04;23.37;99541.63;7393308;19;20361;-81
2023/10/12 08:35:39;;;;;;;0.43;0.43;;;;;;;38.80;23.34;99552.59;7397701;19;20025;-82
2023/10/12 08:38:12;;;;;;;0.20;0.20;;;;;;;38.59;23.59;99557.03;7392548;19;20074;-81
2023/10/12 08:41:20;;;;;;;0.88;0.65;;;;;;;38.62;23.74;99562.25;7392303;19;20022;-82
2023/10/12 08:43:48;;;;;;;1.75;0.75;;;;;;;38.71;23.80;99550.84;7392538;19;20029;-81
2023/10/12 08:49:33;;;;;;;0.75;0.65;;;;;;;38.90;23.89;99562.34;7395188;19;20412;-81
2023/10/12 08:52:04;;;;;;;0.35;0.32;;;;;;;38.92;24.12;99558.78;7393692;19;20052;-81
2023/10/12 08:54:37;;;;;;;2.38;0.40;;;;;;;39.08;24.05;99550.47;7393790;19;20333;-81
2023/10/12 08:57:37;;;;;;;0.75;0.17;;;;;;;39.19;23.99;99558.13;7392303;19;20018;-79
2023/10/12 09:03:00;;;;;;;1.05;0.85;;;;;;;39.01;24.28;99567.03;7393319;19;20026;-80
2023/10/12 09:05:28;;;;;;;1.48;0.77;;;;;;;38.71;24.56;99571.22;7390486;19;20022;-80
2023/10/12 09:13:34;;;;;;;0.20;0.13;;;;;;;38.77;24.28;99577.25;7391417;19;20015;-79
2023/10/12 09:16:09;;;;;;;1.42;1.05;;;;;;;38.68;24.38;99564.59;7390220;19;20551;-80
2023/10/12 09:23:52;;;;;;;0.57;0.57;;;;;;;38.59;24.61;99569.44;7393615;19;20014;-79
2023/10/12 09:26:30;;;;;;;0.57;0.57;;;;;;;37.89;25.45;99570.06;7390343;19;20014;-79
2023/10/12 09:29:08;;;;;;;0.15;0.15;;;;;;;36.32;26.79;99570.00;7391578;19;20022;-79
2023/10/12 09:36:38;;;;;;;0.32;0.32;;;;;;;35.24;28.34;99558.13;7391160;19;20029;-79
2023/10/12 09:39:11;;;;;;;6.22;1.08;;;;;;;33.67;29.87;99572.97;7390485;19;20039;-78
2023/10/12 09:41:40;;;;;;;2.45;1.13;;;;;;;32.56;31.30;99573.56;7391220;19;20464;-79
2023/10/12 09:44:07;;;;;;;0.50;0.47;;;;;;;31.63;32.75;99578.97;7390064;19;20022;-79
2023/10/12 09:46:33;;;;;;;0.30;0.30;;;;;;;30.38;34.02;99579.09;7391299;19;20097;-79
2023/10/12 09:49:06;;;;;;;3.45;0.73;;;;;;;30.32;35.03;99572.97;7392487;19;20017;-79
2023/10/12 09:51:37;;;;;;;0.63;0.55;;;;;;;29.72;35.70;99576.16;7391580;19;20492;-79
2023/10/12 09:54:15;;;;;;;0.43;0.30;;;;;;;30.34;35.05;99581.72;7389974;19;20043;-79
2023/10/12 09:56:57;;;;;;;0.30;0.30;;;;;;;31.03;34.41;99576.06;7391084;19;20022;-79
2023/10/12 09:59:28;;;;;;;0.82;0.82;;;;;;;31.30;33.52;99573.38;7392775;19;20015;-79
2023/10/12 10:02:05;;;;;;;0.38;0.38;;;;;;;30.36;35.12;99581.84;7391127;19;20022;-80
2023/10/12 10:04:34;;;;;;;2.17;0.55;;;;;;;30.23;36.17;99588.16;7391324;19;20021;-79
2023/10/12 10:07:32;;;;;;;0.20;0.20;;;;;;;30.05;36.43;99584.06;7391216;19;20031;-80
2023/10/12 10:10:05;;;;;;;3.03;0.32;;;;;;;30.05;36.42;99590.56;7388802;19;20042;-80
2023/10/12 10:12:42;;;;;;;0.47;0.30;;;;;;;30.83;35.48;99574.78;7393926;19;20018;-79
2023/10/12 10:15:20;;;;;;;2.25;0.73;;;;;;;30.83;35.88;99569.03;7388697;19;20014;-80
2023/10/12 10:17:53;;;;;;;0.70;0.10;;;;;;;30.85;36.04;99569.16;7390593;19;20041;-79
2023/10/12 10:23:01;;;;;;;11.38;1.20;;;;;;;32.80;33.14;99569.13;7391766;19;20465;-80
2023/10/12 10:25:34;;;;;;;0.55;0.47;;;;;;;33.58;32.65;99568.94;7388898;19;20021;-79
2023/10/12 10:28:10;;;;;;;0.38;0.30;;;;;;;34.86;31.90;99562.19;7388788;19;20015;-81
2023/10/12 10:30:41;;;;;;;0.10;0.05;;;;;;;35.82;30.94;99565.00;7390408;19;20015;-80
2023/10/12 10:33:20;;;;;;;1.65;0.98;;;;;;;36.31;30.50;99559.78;7388710;19;20028;-80
2023/10/12 10:36:10;;;;;;;0.98;0.50;;;;;;;37.46;29.26;99562.03;7391190;19;20015;-79
2023/10/12 10:38:46;;;;;;;0.40;0.20;;;;;;;37.20;29.04;99558.91;7389523;19;20349;-80
2023/10/12 10:41:18;;;;;;;0.10;0.00;;;;;;;36.70;29.48;99557.00;7390320;19;20030;-80
2023/10/12 10:43:46;;;;;;;1.17;0.13;;;;;;;36.81;29.53;99566.81;7389254;19;20019;-80
2023/10/12 10:46:16;;;;;;;0.10;0.08;;;;;;;36.72;28.59;99562.88;7387941;19;20038;-80
2023/10/12 10:48:49;;;;;;;0.10;0.10;;;;;;;36.53;29.76;99563.59;7397775;19;20530;-80
2023/10/12 10:51:24;;;;;;;0.10;0.10;;;;;;;35.84;30.41;99567.97;7395385;19;20404;-80
2023/10/12 10:53:54;;;;;;;0.25;0.17;;;;;;;35.77;30.04;99556.13;7396762;19;20023;-80
2023/10/12 10:56:38;;;;;;;1.13;0.23;;;;;;;34.44;30.40;99552.25;7392582;19;20093;-80
2023/10/12 10:59:12;;;;;;;1.00;0.30;;;;;;;33.14;31.75;99555.03;7396000;19;20018;-80
2023/10/12 11:01:46;;;;;;;0.08;0.08;;;;;;;33.91;30.76;99548.19;7397609;19;20021;-80
2023/10/12 11:04:26;;;;;;;0.05;0.00;;;;;;;33.23;31.69;99551.94;7398187;19;20060;-80
2023/10/12 11:06:53;;;;;;;0.50;0.50;;;;;;;32.12;32.87;99547.97;7397672;19;20401;-80
2023/10/12 11:09:31;;;;;;;0.43;0.43;;;;;;;31.99;32.97;99534.25;7394710;19;20051;-80
2023/10/12 11:12:00;;;;;;;4.97;1.30;;;;;;;31.36;33.49;99530.56;7399512;19;20014;-80
2023/10/12 11:14:32;;;;;;;0.80;0.20;;;;;;;31.21;33.11;99533.97;7396577;19;20023;-80
2023/10/12 11:17:04;;;;;;;0.60;0.60;;;;;;;30.84;33.94;99533.13;7395146;19;20035;-79
2023/10/12 11:19:33;;;;;;;1.02;0.10;;;;;;;31.22;34.21;99541.25;7392626;19;20439;-80
2023/10/12 11:21:59;;;;;;;1.20;0.30;;;;;;;31.83;33.11;99544.84;7398430;19;20010;-79
2023/10/12 11:24:33;;;;;;;0.05;0.05;;;;;;;31.34;33.33;99550.59;7398572;19;20538;31
2023/10/12 11:27:01;;;;;;;0.13;0.10;;;;;;;31.01;34.25;99534.91;7396068;19;20022;-82
2023/10/12 11:29:28;;;;;;;0.30;0.30;;;;;;;30.47;34.19;99526.50;7392586;19;20011;-82
2023/10/12 11:32:08;;;;;;;0.90;0.25;;;;;;;30.16;35.35;99526.66;7394653;19;20022;-83
2023/10/12 11:34:36;;;;;;;0.10;0.00;;;;;;;29.68;36.04;99518.50;7395293;19;20018;-82
2023/10/12 11:37:02;;;;;;;0.00;0.00;;;;;;;30.25;34.96;99516.44;7398930;19;20042;-82
2023/10/12 11:39:39;;;;;;;0.10;0.10;;;;;;;29.41;35.19;99512.34;7394335;19;20014;-82
2023/10/12 11:42:07;;;;;;;0.10;0.10;;;;;;;29.90;35.64;99505.63;7396073;19;20014;-82
2023/10/12 11:44:42;;;;;;;5.15;0.32;;;;;;;30.17;35.02;99502.28;7393698;19;20172;-82
2023/10/12 11:47:10;;;;;;;0.55;0.10;;;;;;;29.66;35.17;99509.75;7399444;19;20334;-82
2023/10/12 11:49:58;;;;;;;0.90;0.45;;;;;;;30.65;34.41;99502.50;7392008;19;20021;-82
2023/10/12 11:52:30;;;;;;;0.10;0.05;;;;;;;30.53;34.49;99519.00;7393571;19;20014;-83
2023/10/12 11:55:21;;;;;;;0.30;0.30;;;;;;;31.15;34.08;99519.25;7393447;19;20387;-82
2023/10/12 11:57:49;;;;;;;0.65;0.22;;;;;;;31.15;35.01;99510.59;7392549;19;20342;-82
2023/10/12 12:00:21;;;;;;;0.08;0.00;;;;;;;31.50;33.73;99501.16;7392971;19;20477;-82
2023/10/12 12:02:52;;;;;;;0.95;0.95;;;;;;;31.40;33.48;99490.53;7393743;19;20081;-82
2023/10/12 12:05:22;;;;;;;0.10;0.00;;;;;;;31.58;33.42;99484.38;7394909;19;20528;-82
2023/10/12 12:07:52;;;;;;;0.20;0.20;;;;;;;31.72;32.51;99490.91;7392405;19;20020;-82
2023/10/12 12:11:03;;;;;;;1.77;0.20;;;;;;;32.26;32.40;99481.75;7395310;19;20018;-82
2023/10/12 12:13:08;;;;;;;0.10;0.10;;;;;;;31.82;32.44;99491.50;7393430;19;20360;-82
2023/10/12 12:15:35;;;;;;;0.00;0.00;;;;;;;32.30;32.34;99479.06;7392468;19;20038;-82
2023/10/12 12:18:10;;;;;;;0.20;0.20;;;;;;;33.69;31.27;99487.16;7394233;19;20025;-82
2023/10/12 12:20:39;;;;;;;0.00;0.00;;;;;;;36.21;29.12;99486.88;7395079;19;20011;-82
2023/10/12 12:23:06;;;;;;;0.10;0.10;;;;;;;35.64;30.59;99499.06;7397515;19;20018;-82
2023/10/12 12:25:33;;;;;;;0.35;0.35;;;;;;;35.17;30.61;99498.47;7392374;19;20467;-81
2023/10/12 12:28:01;;;;;;;0.90;0.30;;;;;;;33.69;32.04;99495.84;7391680;19;20039;-82
2023/10/12 12:30:33;;;;;;;5.97;1.65;;;;;;;33.12;32.85;99488.56;7392870;19;20010;-82
2023/10/12 12:33:08;;;;;;;0.10;0.10;;;;;;;33.40;32.78;99478.44;7394192;19;20134;-82
2023/10/12 12:35:36;;;;;;;0.10;0.00;;;;;;;33.63;32.28;99478.22;7394453;19;20014;-82
2023/10/12 12:38:14;;;;;;;0.43;0.30;;;;;;;33.44;32.05;99484.44;7390593;19;20018;-81
2023/10/12 12:40:44;;;;;;;4.40;0.30;;;;;;;33.21;32.83;99490.47;7392727;19;20761;-82
2023/10/12 12:43:11;;;;;;;0.55;0.45;;;;;;;33.96;32.49;99483.41;7391180;19;20354;-82
2023/10/12 12:45:37;;;;;;;0.55;0.10;;;;;;;35.02;31.60;99470.31;7395998;19;20018;-82
2023/10/12 12:48:04;;;;;;;0.25;0.08;;;;;;;36.01;30.19;99474.47;7395453;19;20091;-82
2023/10/12 12:50:31;;;;;;;0.35;0.35;;;;;;;35.62;30.23;99475.81;7393478;19;20031;-82
2023/10/12 12:52:57;;;;;;;0.10;0.10;;;;;;;35.46;29.94;99460.63;7393765;19;20014;-82
2023/10/12 12:55:32;;;;;;;0.10;0.10;;;;;;;35.16;29.93;99453.53;7393825;19;20016;-82
2023/10/12 12:58:01;;;;;;;7.22;0.30;;;;;;;35.90;29.43;99455.16;7391963;19;20018;-82
2023/10/12 13:00:33;;;;;;;1.38;0.40;;;;;;;35.21;29.96;99443.63;7393342;19;20042;-82
2023/10/12 13:03:00;;;;;;;1.00;0.20;;;;;;;35.15;30.12;99443.34;7390947;19;20035;-82
2023/10/12 13:05:30;;;;;;;0.03;0.00;;;;;;;36.80;28.69;99432.53;7395090;19;20022;-82
2023/10/12 13:07:56;;;;;;;0.80;0.43;;;;;;;36.36;28.53;99434.53;7391041;19;20027;-82
2023/10/12 13:10:25;;;;;;;0.10;0.10;;;;;;;36.13;28.60;99443.03;7391651;19;20181;-82
2023/10/12 13:12:52;;;;;;;0.00;0.00;;;;;;;37.64;27.53;99443.44;7393600;19;20025;-83
2023/10/12 13:15:18;;;;;;;0.40;0.40;;;;;;;38.96;26.43;99454.03;7392774;19;20014;-82
2023/10/12 13:17:44;;;;;;;0.20;0.20;;;;;;;39.08;26.09;99440.53;7393538;19;20018;-82
2023/10/12 13:20:18;;;;;;;0.47;0.40;;;;;;;38.99;25.51;99443.91;7392174;19;20018;-82
2023/10/12 13:22:44;;;;;;;0.20;0.20;;;;;;;38.83;25.91;99441.31;7393307;19;20077;-82
2023/10/12 13:25:11;;;;;;;1.75;0.90;;;;;;;38.99;26.37;99435.16;7392803;19;20014;-83
2023/10/12 13:27:38;;;;;;;3.10;0.35;;;;;;;39.19;25.87;99438.63;7390733;19;20030;-83
2023/10/12 13:30:11;;;;;;;0.10;0.00;;;;;;;40.15;25.10;99427.88;7390552;19;20015;-82
2023/10/12 13:32:37;;;;;;;0.63;0.45;;;;;;;40.37;25.16;99423.22;7390795;19;20022;-82
2023/10/12 13:35:18;;;;;;;1.40;0.43;;;;;;;40.55;25.49;99428.75;7394473;19;20026;-83
2023/10/12 13:37:45;;;;;;;0.20;0.20;;;;;;;39.97;25.53;99428.94;7392918;19;20019;-82
2023/10/12 13:40:15;;;;;;;0.32;0.20;;;;;;;39.95;25.68;99425.97;7391847;19;20337;-82
2023/10/12 13:42:43;;;;;;;0.60;0.22;;;;;;;40.17;25.77;99430.84;7390328;19;20023;-82
2023/10/12 13:45:13;;;;;;;0.20;0.13;;;;;;;40.83;24.59;99426.41;7391643;19;20022;-83
2023/10/12 13:47:43;;;;;;;2.15;0.90;;;;;;;40.50;24.33;99430.13;7393183;19;20353;-83
2023/10/12 13:50:10;;;;;;;0.13;0.08;;;;;;;40.53;24.42;99423.59;7392370;19;20014;-83
2023/10/12 13:52:37;;;;;;;0.10;0.00;;;;;;;41.53;24.82;99429.84;7389793;19;20035;-83
2023/10/12 13:55:11;;;;;;;0.45;0.28;;;;;;;42.10;23.51;99425.66;7392733;19;20014;-83
2023/10/12 13:57:55;;;;;;;0.20;0.20;;;;;;;41.65;23.61;99417.63;7390406;19;20521;-83
2023/10/12 14:00:26;;;;;;;4.68;0.30;;;;;;;40.74;23.96;99421.84;7390086;19;20018;-82
2023/10/12 14:02:56;;;;;;;0.10;0.00;;;;;;;39.16;25.57;99420.38;7389136;19;20030;-82
2023/10/12 14:05:27;;;;;;;0.75;0.50;;;;;;;35.18;28.50;99424.66;7391996;19;20014;-83